Aktualne dane pomiarowe

Uwaga, wersja testowa! Automatyczne pobieranie danych za pomocą narzędzi lub skryptów to umożliwiających jest zabronione.

Dane meteo z obszaru Polski uzyskane na podstawie depesz SYNOP pobieranych co godzinę z NWS. Najedź myszką na symbol przedstawiony w tabeli, aby uzyskać informacje co do jego znaczenia. Prosimy pamiętać, że to testowa wersja strony, która jeszcze nie jest ukończona. Stworzono również jest krótki FAQ dotyczący korzystania z tej podstrony Anomalie temperatury w chwili obecnej odniesione są do okresu referencyjnego 1951-2016. Okres ten będzie później zmieniony na 1981-2010. Kliknij ikonę aby pobrać plik CSV. Kliknij ikonę aby wygenerować mapę synoptyczną dla danego terminu.

Wybierz Datę:    

        

Siedlce (12385)

Dane terminowe dla wybranej stacji. Kliknij datę, aby otrzymać dane z tego terminu dla wszystkich stacji.

TemperaturaZachmurzenieWiatrCiśnienieOpadyPogoda
 Data t td wb tx tn tg rh  Nt Nl Cl Cm Ch ws wd g1 g2 wx mslp ppp ch 24h 12h t ww ww w1 w2  
2019-08-08 23:00:00 16.6 12.7 14.0--- 7827.0wxwxwxwx2wx--21011.8 993.4 0.7---------
2019-08-08 22:00:00 15.5 12.4 13.4--- 8230.0wx-wx1wx--11011.8 993.3 0.6---------
2019-08-08 21:00:00 16.1 11.9 13.3--- 7630.0wxwxwx1wx--11011.3 992.9 0.6---wx---
2019-08-08 20:00:00 17.7 11.7 13.9--- 6830.0wxwxwx2wx---1011.0 992.7 0.9---------
2019-08-08 19:00:00 19.1 11.6 14.4--- 6220.0wxwxwxwx2wx--21010.9 992.7 1.1---------
2019-08-08 18:00:00 21.2 11.2 15.1 25.3 18.4- 5340.0wxwxwxwxwx2wx-1321010.4 992.3 0.8- 0.012------
2019-08-08 17:00:00 23.4 10.8 15.9--- 4540.0wxwxwxwxwx4wx--41009.7 991.8 0.7---------
2019-08-08 16:00:00 24.3 10.9 16.3--- 4335.0wxwxwxwx5wx---1009.5 991.6 0.9---------
2019-08-08 15:00:00 25.2 11.7 17.0--- 4335.0wxwxwx5wx-1351009.3 991.5 1.1---------
2019-08-08 14:00:00 25.0 12.2 17.2--- 4530.0wxwxwx6wx-1361008.9 991.1 1.2---------
2019-08-08 13:00:00 24.5 12.4 17.1--- 4723.0wxwxwx7wx-1171008.5 990.7 1.4---------
2019-08-08 12:00:00 24.3 13.8 17.7--- 5235.0wxwxwxwx5wx-1251008.2 990.4 1.4- 0.06------
2019-08-08 11:00:00 23.8 14.2 17.7--- 5528.0wxwxwx6wx111261007.8 989.9 1.6---------
2019-08-08 10:00:00 22.7 14.5 17.4--- 6027.0wxwxwxwx6wx121261007.2 989.3 1.4---------
2019-08-08 09:00:00 20.9 16.3 17.8--- 7524.0wxwxwxwx5wx--51007.0 989.0 1.9---------
2019-08-08 08:00:00 19.7 16.5 17.5--- 8220.0wxwxwxwx5wx--51006.4 988.3 1.9---------
2019-08-08 07:00:00 18.7 17.5 17.8--- 9313.0wxwxwx4wx--41006.0 987.9 1.5---------
2019-08-08 06:00:00 18.6 17.9 18.1 22.5 18.1 16 9615.0wxwxwxwx3wx--31005.2 987.1 0.7 3.2 3.012wx-w1w2- 7.5
2019-08-08 05:00:00 18.4 17.9 18.0--- 974.6wxwxwx3wx---1004.5 986.4 -0.2---wx-w1--
2019-08-08 04:00:00 18.7 18.4 18.5--- 987.0wxwxwx3wx---1004.5 986.4 -0.7---wx-w1--
2019-08-08 03:00:00 18.7 18.4 18.5--- 984.0wxwxwx2wx--21004.5 986.4 -1.0---wx-w1w2--
2019-08-08 02:00:00 18.7 18.4 18.5--- 983.5wx-wx2wx--21004.7 986.6 -1.0---wx-w1w2--
2019-08-08 01:00:00 18.9 18.4 18.5--- 974.3wxwxwx2wx--21005.2 987.1 -0.7---wx-w1w2--
2019-08-08 00:00:00 18.9 17.9 18.2--- 946.0wxwxwx2wx--21005.5 987.4 -0.5- 0.86wx---
2019-08-07 23:00:00 19.1 17.6 18.0--- 9116.0wxwxwx1wx--11005.7 987.6 -0.7----22----
2019-08-07 22:00:00 19.2 17.0 17.6--- 8720.0wx-wx2wx--21005.9 987.8 -1.0---------
2019-08-07 21:00:00 19.5 16.2 17.2--- 8121.0wx-wxwx2wx---1006.0 987.9 -0.6---------
2019-08-07 20:00:00 18.7 16.5 17.1--- 8715.0wx-wxwx1wx---1006.5 988.3 -0.3---------
2019-08-07 19:00:00 20.1 16.9 17.9--- 8219.0wxwxwxwxwx1wx---1006.9 988.8 -0.2---------
2019-08-07 18:00:00 22.5 17.6 19.1 26.2 19.6- 7414.0wx-wxwx1wx--11006.4 988.5 -1.0- 0.012------
2019-08-07 17:00:00 25.2 16.3 19.4--- 5830.0wxwxwxwxwx1wx--11006.4 988.6 -1.4---------
2019-08-07 16:00:00 26.0 16.3 19.7--- 5530.0wxwxwxwx2wx--21006.7 989.0 -0.9---------
2019-08-07 15:00:00 26.2 15.9 19.5--- 5330.0wxwxwxwx2wx--21007.2 989.5 -1.0---------
2019-08-07 14:00:00 25.2 16.1 19.3--- 5735.0wxwxwxwx3wx---1007.8 990.0 -0.5---------
2019-08-07 13:00:00 25.4 16.3 19.4--- 5730.0wxwxwxwxwx2wx--21007.7 989.9 -1.0---------
2019-08-07 12:00:00 25.2 17.1 19.8--- 6122.0wxwxwxwx3wx--31008.3 990.5 -0.2- 0.06------
2019-08-07 11:00:00 25.2 16.6 19.5--- 5927.0wxwxwxwx3wx--31008.3 990.5 -0.1---------
2019-08-07 10:00:00 24.7 16.9 19.5--- 6228.0wxwxwxwx4wx--41008.7 990.9 0.2---------
2019-08-07 09:00:00 24.0 17.5 19.6--- 6729.0wxwxwxwxwx1wx---1008.6 990.7 -0.3---------
2019-08-07 08:00:00 22.8 17.3 19.0--- 7129.0wxwxwxwxwx1wx--11008.5 990.6 -0.4---------
2019-08-07 07:00:00 21.7 17.5 18.8--- 7727.0wxwxwxwxwx2wx--21008.7 990.7 0.3---------
2019-08-07 06:00:00 19.6 17.7 18.2 23.0 16.6 15 8922.0wxwxwxwxwx1wx--11009.1 991.0 0.9 1.2 1.012wx-w1w2- 9.0
2019-08-07 05:00:00 18.0 17.0 17.3--- 9414.0wxwxwxwx1wx--11009.2 991.0 0.4---------
2019-08-07 04:00:00 17.5 16.4 16.7--- 9310.0wxwxwxwx1wx---1008.7 990.4 0.1---wx---
2019-08-07 03:00:00 18.6 16.0 16.8--- 8528.0wxwxwx2wx--21008.3 990.1 -0.5---wx-w1w2--
2019-08-07 02:00:00 18.2 16.7 17.1--- 9114.0wxwxwx3wx--31008.8 990.6 -0.6---wx-w1w2--
2019-08-07 01:00:00 16.9 15.6 16.0--- 9214.0wxwxwxwx1wx--11008.6 990.3 -0.9---wx-w1w2--
2019-08-07 00:00:00 17.1 14.9 15.6--- 8722.0wxwxwxwx1wx--11008.9 990.6 -0.3--6wx-w1--
4.0 ms

 

Print Friendly, PDF & Email